Aviation Digital Data Service (ADDS)

Output produced by TAFs form (0220 UTC 30 March 2015)
found at http://www.aviationweather.gov/adds/tafs/
 
KPSF 292321Z 3000/3024 VRB03KT P6SM SCT250 
     FM301000 21010KT P6SM VCSH SCT020 OVC040 
     FM301500 24012G20KT P6SM VCSH OVC035 
     FM302000 28018G28KT P6SM VCSH BKN040